sensor_id;sensor_type;location;lat;lon;timestamp;P1;durP1;ratioP1;P2;durP2;ratioP2
23800;SDS011;12081;48.614;10.226;2022-09-20T00:02:42;1.67;;;1.03;;
23800;SDS011;12081;48.614;10.226;2022-09-20T00:05:26;1.77;;;1.30;;
23800;SDS011;12081;48.614;10.226;2022-09-20T00:08:14;2.93;;;1.10;;
23800;SDS011;12081;48.614;10.226;2022-09-20T00:11:05;2.13;;;1.10;;
23800;SDS011;12081;48.614;10.226;2022-09-20T00:13:52;4.73;;;1.10;;
23800;SDS011;12081;48.614;10.226;2022-09-20T00:16:39;3.50;;;1.27;;
23800;SDS011;12081;48.614;10.226;2022-09-20T00:19:23;2.20;;;1.47;;
23800;SDS011;12081;48.614;10.226;2022-09-20T00:22:08;2.73;;;1.30;;
23800;SDS011;12081;48.614;10.226;2022-09-20T00:24:52;2.90;;;1.57;;
23800;SDS011;12081;48.614;10.226;2022-09-20T00:27:36;2.73;;;1.40;;
23800;SDS011;12081;48.614;10.226;2022-09-20T00:30:20;2.23;;;1.30;;
23800;SDS011;12081;48.614;10.226;2022-09-20T00:33:04;2.47;;;1.60;;
23800;SDS011;12081;48.614;10.226;2022-09-20T00:35:48;2.20;;;1.23;;
23800;SDS011;12081;48.614;10.226;2022-09-20T00:38:33;1.57;;;1.40;;
23800;SDS011;12081;48.614;10.226;2022-09-20T00:41:17;3.80;;;1.47;;
23800;SDS011;12081;48.614;10.226;2022-09-20T00:44:01;3.70;;;1.60;;
23800;SDS011;12081;48.614;10.226;2022-09-20T00:46:46;1.10;;;1.00;;
23800;SDS011;12081;48.614;10.226;2022-09-20T05:35:32;7.53;;;4.20;;
23800;SDS011;12081;48.614;10.226;2022-09-20T05:41:39;7.03;;;4.23;;
23800;SDS011;12081;48.614;10.226;2022-09-20T05:44:40;9.03;;;4.30;;
23800;SDS011;12081;48.614;10.226;2022-09-20T05:50:45;9.10;;;4.33;;
23800;SDS011;12081;48.614;10.226;2022-09-20T05:53:46;10.10;;;4.87;;
23800;SDS011;12081;48.614;10.226;2022-09-20T06:06:13;12.37;;;5.50;;
23800;SDS011;12081;48.614;10.226;2022-09-20T06:13:00;10.03;;;5.77;;
23800;SDS011;12081;48.614;10.226;2022-09-20T06:15:57;13.33;;;6.70;;
23800;SDS011;12081;48.614;10.226;2022-09-20T06:19:19;7.83;;;6.20;;
23800;SDS011;12081;48.614;10.226;2022-09-20T06:21:55;13.50;;;6.60;;
23800;SDS011;12081;48.614;10.226;2022-09-20T06:25:00;7.63;;;6.10;;
23800;SDS011;12081;48.614;10.226;2022-09-20T06:28:04;10.40;;;6.20;;
23800;SDS011;12081;48.614;10.226;2022-09-20T06:30:57;8.67;;;5.83;;
23800;SDS011;12081;48.614;10.226;2022-09-20T06:33:43;11.40;;;6.13;;
23800;SDS011;12081;48.614;10.226;2022-09-20T06:36:33;7.60;;;6.00;;
23800;SDS011;12081;48.614;10.226;2022-09-20T06:42:59;10.60;;;6.37;;
23800;SDS011;12081;48.614;10.226;2022-09-20T06:45:43;9.53;;;6.37;;
23800;SDS011;12081;48.614;10.226;2022-09-20T06:48:28;8.97;;;5.70;;
23800;SDS011;12081;48.614;10.226;2022-09-20T06:51:14;20.93;;;11.30;;
23800;SDS011;12081;48.614;10.226;2022-09-20T06:53:58;9.57;;;8.00;;
23800;SDS011;12081;48.614;10.226;2022-09-20T06:56:43;10.93;;;6.97;;
23800;SDS011;12081;48.614;10.226;2022-09-20T06:59:29;10.07;;;6.93;;
23800;SDS011;12081;48.614;10.226;2022-09-20T07:02:14;12.40;;;6.70;;
23800;SDS011;12081;48.614;10.226;2022-09-20T07:04:58;11.20;;;6.30;;
23800;SDS011;12081;48.614;10.226;2022-09-20T07:07:42;11.30;;;6.33;;
23800;SDS011;12081;48.614;10.226;2022-09-20T07:10:26;12.97;;;6.40;;
23800;SDS011;12081;48.614;10.226;2022-09-20T07:13:11;10.67;;;6.23;;
23800;SDS011;12081;48.614;10.226;2022-09-20T07:15:58;9.50;;;5.80;;
23800;SDS011;12081;48.614;10.226;2022-09-20T07:18:45;9.23;;;5.10;;
23800;SDS011;12081;48.614;10.226;2022-09-20T07:21:29;9.63;;;5.67;;
23800;SDS011;12081;48.614;10.226;2022-09-20T07:24:13;9.73;;;4.70;;
23800;SDS011;12081;48.614;10.226;2022-09-20T07:26:58;7.23;;;4.03;;
23800;SDS011;12081;48.614;10.226;2022-09-20T07:29:44;9.73;;;4.50;;
23800;SDS011;12081;48.614;10.226;2022-09-20T07:32:28;7.17;;;3.80;;
23800;SDS011;12081;48.614;10.226;2022-09-20T07:35:14;6.80;;;3.80;;
23800;SDS011;12081;48.614;10.226;2022-09-20T07:37:59;6.50;;;3.47;;
23800;SDS011;12081;48.614;10.226;2022-09-20T07:40:44;9.13;;;4.13;;
23800;SDS011;12081;48.614;10.226;2022-09-20T07:43:29;13.10;;;6.80;;
23800;SDS011;12081;48.614;10.226;2022-09-20T07:46:14;6.63;;;2.80;;
23800;SDS011;12081;48.614;10.226;2022-09-20T07:48:58;10.50;;;4.43;;
23800;SDS011;12081;48.614;10.226;2022-09-20T07:51:42;11.80;;;7.00;;
23800;SDS011;12081;48.614;10.226;2022-09-20T07:54:26;14.27;;;8.30;;
23800;SDS011;12081;48.614;10.226;2022-09-20T07:57:10;11.63;;;5.30;;
23800;SDS011;12081;48.614;10.226;2022-09-20T07:59:56;5.43;;;2.97;;
23800;SDS011;12081;48.614;10.226;2022-09-20T08:02:40;14.60;;;7.43;;
23800;SDS011;12081;48.614;10.226;2022-09-20T08:05:24;10.57;;;3.60;;
23800;SDS011;12081;48.614;10.226;2022-09-20T08:08:08;6.97;;;3.23;;
23800;SDS011;12081;48.614;10.226;2022-09-20T08:11:00;9.40;;;4.50;;
23800;SDS011;12081;48.614;10.226;2022-09-20T08:13:48;8.53;;;4.57;;
23800;SDS011;12081;48.614;10.226;2022-09-20T08:16:39;7.47;;;2.67;;
23800;SDS011;12081;48.614;10.226;2022-09-20T08:19:25;5.47;;;2.20;;
23800;SDS011;12081;48.614;10.226;2022-09-20T08:22:10;6.67;;;2.30;;
23800;SDS011;12081;48.614;10.226;2022-09-20T08:24:55;7.30;;;3.03;;
23800;SDS011;12081;48.614;10.226;2022-09-20T08:27:39;7.23;;;2.43;;
23800;SDS011;12081;48.614;10.226;2022-09-20T08:30:23;7.73;;;2.30;;
23800;SDS011;12081;48.614;10.226;2022-09-20T08:33:07;7.77;;;2.10;;
23800;SDS011;12081;48.614;10.226;2022-09-20T08:35:51;8.90;;;2.20;;
23800;SDS011;12081;48.614;10.226;2022-09-20T08:38:35;6.57;;;2.50;;
23800;SDS011;12081;48.614;10.226;2022-09-20T08:41:32;5.67;;;1.90;;
23800;SDS011;12081;48.614;10.226;2022-09-20T08:50:26;5.10;;;1.77;;
23800;SDS011;12081;48.614;10.226;2022-09-20T08:53:11;10.73;;;1.70;;
23800;SDS011;12081;48.614;10.226;2022-09-20T08:55:57;6.07;;;2.00;;
23800;SDS011;12081;48.614;10.226;2022-09-20T08:58:42;5.77;;;2.00;;
23800;SDS011;12081;48.614;10.226;2022-09-20T09:01:28;4.17;;;1.73;;
23800;SDS011;12081;48.614;10.226;2022-09-20T09:04:19;4.63;;;1.30;;
23800;SDS011;12081;48.614;10.226;2022-09-20T09:07:08;7.00;;;1.53;;
23800;SDS011;12081;48.614;10.226;2022-09-20T09:09:56;6.27;;;1.67;;
23800;SDS011;12081;48.614;10.226;2022-09-20T09:12:40;5.73;;;1.57;;
23800;SDS011;12081;48.614;10.226;2022-09-20T09:15:30;4.57;;;1.43;;
23800;SDS011;12081;48.614;10.226;2022-09-20T09:18:30;4.03;;;1.73;;
23800;SDS011;12081;48.614;10.226;2022-09-20T09:21:20;5.63;;;1.57;;
23800;SDS011;12081;48.614;10.226;2022-09-20T09:24:11;4.60;;;1.67;;
23800;SDS011;12081;48.614;10.226;2022-09-20T09:29:56;3.13;;;1.17;;
23800;SDS011;12081;48.614;10.226;2022-09-20T09:32:40;6.97;;;1.40;;
23800;SDS011;12081;48.614;10.226;2022-09-20T09:35:27;4.57;;;1.43;;
23800;SDS011;12081;48.614;10.226;2022-09-20T09:38:17;4.37;;;1.50;;
23800;SDS011;12081;48.614;10.226;2022-09-20T09:41:05;3.27;;;1.53;;
23800;SDS011;12081;48.614;10.226;2022-09-20T09:44:17;6.87;;;1.50;;
23800;SDS011;12081;48.614;10.226;2022-09-20T09:47:03;3.57;;;1.00;;
23800;SDS011;12081;48.614;10.226;2022-09-20T09:50:04;6.77;;;1.40;;
23800;SDS011;12081;48.614;10.226;2022-09-20T09:52:55;6.70;;;1.37;;
23800;SDS011;12081;48.614;10.226;2022-09-20T09:59:33;3.83;;;1.07;;
23800;SDS011;12081;48.614;10.226;2022-09-20T10:12:11;3.87;;;0.70;;
23800;SDS011;12081;48.614;10.226;2022-09-20T10:15:23;6.17;;;1.37;;
23800;SDS011;12081;48.614;10.226;2022-09-20T10:21:40;4.77;;;1.30;;
23800;SDS011;12081;48.614;10.226;2022-09-20T10:31:08;2.87;;;0.90;;
23800;SDS011;12081;48.614;10.226;2022-09-20T10:37:01;3.00;;;0.90;;
23800;SDS011;12081;48.614;10.226;2022-09-20T10:39:47;4.43;;;1.00;;
23800;SDS011;12081;48.614;10.226;2022-09-20T10:43:07;4.47;;;1.10;;
23800;SDS011;12081;48.614;10.226;2022-09-20T10:46:05;4.30;;;1.00;;
23800;SDS011;12081;48.614;10.226;2022-09-20T10:52:11;2.97;;;0.97;;
23800;SDS011;12081;48.614;10.226;2022-09-20T11:07:17;2.77;;;1.30;;
23800;SDS011;12081;48.614;10.226;2022-09-20T11:10:20;5.53;;;1.60;;
23800;SDS011;12081;48.614;10.226;2022-09-20T11:13:26;5.10;;;1.27;;
23800;SDS011;12081;48.614;10.226;2022-09-20T11:16:17;5.37;;;1.40;;
23800;SDS011;12081;48.614;10.226;2022-09-20T11:19:21;4.83;;;1.10;;
23800;SDS011;12081;48.614;10.226;2022-09-20T11:22:11;4.03;;;1.00;;
23800;SDS011;12081;48.614;10.226;2022-09-20T11:25:19;4.87;;;0.90;;
23800;SDS011;12081;48.614;10.226;2022-09-20T11:31:24;3.63;;;0.93;;
23800;SDS011;12081;48.614;10.226;2022-09-20T11:34:22;4.90;;;1.30;;
23800;SDS011;12081;48.614;10.226;2022-09-20T11:37:11;3.57;;;1.07;;
23800;SDS011;12081;48.614;10.226;2022-09-20T11:40:06;4.10;;;1.20;;
23800;SDS011;12081;48.614;10.226;2022-09-20T11:43:11;2.70;;;1.10;;
23800;SDS011;12081;48.614;10.226;2022-09-20T11:46:02;2.70;;;0.90;;
23800;SDS011;12081;48.614;10.226;2022-09-20T11:49:00;3.05;;;0.95;;
23800;SDS011;12081;48.614;10.226;2022-09-20T11:52:02;3.07;;;1.13;;
23800;SDS011;12081;48.614;10.226;2022-09-20T11:58:24;2.90;;;1.02;;
23800;SDS011;12081;48.614;10.226;2022-09-20T12:01:11;3.33;;;1.10;;
23800;SDS011;12081;48.614;10.226;2022-09-20T12:03:57;5.77;;;1.70;;
23800;SDS011;12081;48.614;10.226;2022-09-20T12:06:44;5.87;;;1.80;;
23800;SDS011;12081;48.614;10.226;2022-09-20T12:09:40;9.50;;;2.17;;
23800;SDS011;12081;48.614;10.226;2022-09-20T12:12:45;2.63;;;0.93;;
23800;SDS011;12081;48.614;10.226;2022-09-20T12:15:33;3.47;;;1.23;;
23800;SDS011;12081;48.614;10.226;2022-09-20T12:21:18;7.67;;;1.20;;
23800;SDS011;12081;48.614;10.226;2022-09-20T12:24:16;3.23;;;1.17;;
23800;SDS011;12081;48.614;10.226;2022-09-20T12:30:24;3.80;;;1.33;;
23800;SDS011;12081;48.614;10.226;2022-09-20T12:33:17;5.80;;;1.73;;
23800;SDS011;12081;48.614;10.226;2022-09-20T12:36:14;3.27;;;0.70;;
23800;SDS011;12081;48.614;10.226;2022-09-20T12:41:57;5.20;;;1.30;;
23800;SDS011;12081;48.614;10.226;2022-09-20T12:45:17;5.28;;;1.20;;
23800;SDS011;12081;48.614;10.226;2022-09-20T12:48:01;3.72;;;1.20;;
23800;SDS011;12081;48.614;10.226;2022-09-20T12:51:02;4.63;;;0.90;;
23800;SDS011;12081;48.614;10.226;2022-09-20T12:54:08;3.53;;;1.00;;
23800;SDS011;12081;48.614;10.226;2022-09-20T12:56:54;3.95;;;0.90;;
23800;SDS011;12081;48.614;10.226;2022-09-20T12:59:38;5.35;;;1.00;;
23800;SDS011;12081;48.614;10.226;2022-09-20T13:02:42;2.53;;;0.93;;
23800;SDS011;12081;48.614;10.226;2022-09-20T13:05:35;2.50;;;0.77;;
23800;SDS011;12081;48.614;10.226;2022-09-20T13:08:22;3.23;;;0.80;;
23800;SDS011;12081;48.614;10.226;2022-09-20T13:11:11;4.67;;;1.00;;
23800;SDS011;12081;48.614;10.226;2022-09-20T13:14:10;2.33;;;0.73;;
23800;SDS011;12081;48.614;10.226;2022-09-20T13:20:13;5.40;;;1.27;;
23800;SDS011;12081;48.614;10.226;2022-09-20T13:23:02;4.13;;;0.80;;
23800;SDS011;12081;48.614;10.226;2022-09-20T13:25:48;4.17;;;0.97;;
23800;SDS011;12081;48.614;10.226;2022-09-20T13:28:33;2.77;;;0.90;;
23800;SDS011;12081;48.614;10.226;2022-09-20T13:31:23;5.93;;;1.13;;
23800;SDS011;12081;48.614;10.226;2022-09-20T13:34:22;3.00;;;0.80;;
23800;SDS011;12081;48.614;10.226;2022-09-20T13:37:14;3.00;;;0.90;;
23800;SDS011;12081;48.614;10.226;2022-09-20T13:40:06;3.10;;;0.90;;
23800;SDS011;12081;48.614;10.226;2022-09-20T13:43:18;3.07;;;0.80;;
23800;SDS011;12081;48.614;10.226;2022-09-20T13:49:13;4.73;;;0.97;;
23800;SDS011;12081;48.614;10.226;2022-09-20T13:52:11;2.87;;;0.80;;
23800;SDS011;12081;48.614;10.226;2022-09-20T14:01:19;7.20;;;1.10;;
23800;SDS011;12081;48.614;10.226;2022-09-20T14:04:08;2.30;;;0.97;;
23800;SDS011;12081;48.614;10.226;2022-09-20T14:06:57;4.87;;;1.07;;
23800;SDS011;12081;48.614;10.226;2022-09-20T14:09:43;4.07;;;1.20;;
23800;SDS011;12081;48.614;10.226;2022-09-20T14:12:28;4.17;;;1.00;;
23800;SDS011;12081;48.614;10.226;2022-09-20T14:15:13;6.37;;;1.47;;
23800;SDS011;12081;48.614;10.226;2022-09-20T14:17:58;3.87;;;1.13;;
23800;SDS011;12081;48.614;10.226;2022-09-20T14:20:43;3.93;;;1.30;;
23800;SDS011;12081;48.614;10.226;2022-09-20T14:23:28;5.13;;;1.10;;
23800;SDS011;12081;48.614;10.226;2022-09-20T14:35:06;2.17;;;0.80;;
23800;SDS011;12081;48.614;10.226;2022-09-20T14:37:58;7.03;;;1.83;;
23800;SDS011;12081;48.614;10.226;2022-09-20T14:40:51;4.60;;;1.93;;
23800;SDS011;12081;48.614;10.226;2022-09-20T14:43:35;8.10;;;2.60;;
23800;SDS011;12081;48.614;10.226;2022-09-20T14:46:26;6.20;;;1.67;;
23800;SDS011;12081;48.614;10.226;2022-09-20T14:49:20;4.20;;;1.20;;
23800;SDS011;12081;48.614;10.226;2022-09-20T14:58:09;5.40;;;0.97;;
23800;SDS011;12081;48.614;10.226;2022-09-20T15:00:57;4.40;;;1.07;;
23800;SDS011;12081;48.614;10.226;2022-09-20T15:04:06;5.27;;;1.03;;
23800;SDS011;12081;48.614;10.226;2022-09-20T15:06:52;3.70;;;1.00;;
23800;SDS011;12081;48.614;10.226;2022-09-20T15:09:37;2.97;;;1.10;;
23800;SDS011;12081;48.614;10.226;2022-09-20T15:12:21;5.43;;;1.00;;
23800;SDS011;12081;48.614;10.226;2022-09-20T15:15:05;5.03;;;1.13;;
23800;SDS011;12081;48.614;10.226;2022-09-20T15:17:50;2.73;;;0.93;;
23800;SDS011;12081;48.614;10.226;2022-09-20T15:20:34;4.57;;;1.00;;
23800;SDS011;12081;48.614;10.226;2022-09-20T15:23:18;5.70;;;1.17;;
23800;SDS011;12081;48.614;10.226;2022-09-20T15:26:02;3.27;;;0.90;;
23800;SDS011;12081;48.614;10.226;2022-09-20T15:28:47;5.67;;;1.00;;
23800;SDS011;12081;48.614;10.226;2022-09-20T15:31:32;5.57;;;1.20;;
23800;SDS011;12081;48.614;10.226;2022-09-20T15:34:16;4.07;;;0.90;;
23800;SDS011;12081;48.614;10.226;2022-09-20T15:37:01;2.47;;;0.93;;
23800;SDS011;12081;48.614;10.226;2022-09-20T15:39:45;4.03;;;1.00;;
23800;SDS011;12081;48.614;10.226;2022-09-20T15:42:29;3.53;;;0.90;;
23800;SDS011;12081;48.614;10.226;2022-09-20T15:45:13;2.40;;;0.80;;
23800;SDS011;12081;48.614;10.226;2022-09-20T15:47:57;4.80;;;1.00;;
23800;SDS011;12081;48.614;10.226;2022-09-20T15:50:42;3.53;;;1.27;;
23800;SDS011;12081;48.614;10.226;2022-09-20T15:53:27;3.13;;;0.80;;
23800;SDS011;12081;48.614;10.226;2022-09-20T15:59:04;3.20;;;1.00;;
23800;SDS011;12081;48.614;10.226;2022-09-20T16:01:52;2.87;;;0.80;;
23800;SDS011;12081;48.614;10.226;2022-09-20T16:04:36;3.33;;;0.77;;
23800;SDS011;12081;48.614;10.226;2022-09-20T16:07:21;1.67;;;0.80;;
23800;SDS011;12081;48.614;10.226;2022-09-20T16:10:08;5.93;;;1.40;;
23800;SDS011;12081;48.614;10.226;2022-09-20T16:12:52;3.70;;;1.40;;
23800;SDS011;12081;48.614;10.226;2022-09-20T16:15:37;4.30;;;1.27;;
23800;SDS011;12081;48.614;10.226;2022-09-20T16:18:21;1.53;;;0.90;;
23800;SDS011;12081;48.614;10.226;2022-09-20T16:21:24;4.90;;;0.90;;
23800;SDS011;12081;48.614;10.226;2022-09-20T16:24:08;6.43;;;1.30;;
23800;SDS011;12081;48.614;10.226;2022-09-20T16:26:55;3.23;;;1.00;;
23800;SDS011;12081;48.614;10.226;2022-09-20T16:29:40;5.80;;;1.63;;
23800;SDS011;12081;48.614;10.226;2022-09-20T16:32:24;4.60;;;1.10;;
23800;SDS011;12081;48.614;10.226;2022-09-20T16:35:08;3.43;;;1.17;;
23800;SDS011;12081;48.614;10.226;2022-09-20T16:37:52;4.47;;;1.33;;
23800;SDS011;12081;48.614;10.226;2022-09-20T16:40:36;1.13;;;0.80;;
23800;SDS011;12081;48.614;10.226;2022-09-20T16:43:21;8.93;;;1.30;;
23800;SDS011;12081;48.614;10.226;2022-09-20T16:46:09;5.40;;;1.20;;
23800;SDS011;12081;48.614;10.226;2022-09-20T16:48:55;5.40;;;1.20;;
23800;SDS011;12081;48.614;10.226;2022-09-20T16:51:41;5.67;;;1.67;;
23800;SDS011;12081;48.614;10.226;2022-09-20T16:54:27;3.53;;;1.40;;
23800;SDS011;12081;48.614;10.226;2022-09-20T16:57:12;5.17;;;1.20;;
23800;SDS011;12081;48.614;10.226;2022-09-20T16:59:56;2.17;;;1.00;;
23800;SDS011;12081;48.614;10.226;2022-09-20T17:02:41;4.93;;;1.30;;
23800;SDS011;12081;48.614;10.226;2022-09-20T17:05:26;4.07;;;1.40;;
23800;SDS011;12081;48.614;10.226;2022-09-20T17:08:10;2.77;;;1.67;;
23800;SDS011;12081;48.614;10.226;2022-09-20T17:11:00;6.03;;;1.70;;
23800;SDS011;12081;48.614;10.226;2022-09-20T17:13:46;7.20;;;3.33;;
23800;SDS011;12081;48.614;10.226;2022-09-20T17:16:34;8.37;;;2.60;;
23800;SDS011;12081;48.614;10.226;2022-09-20T17:19:20;7.90;;;1.90;;
23800;SDS011;12081;48.614;10.226;2022-09-20T17:22:04;3.00;;;1.70;;
23800;SDS011;12081;48.614;10.226;2022-09-20T17:24:50;3.30;;;1.60;;
23800;SDS011;12081;48.614;10.226;2022-09-20T17:27:34;6.13;;;2.00;;
23800;SDS011;12081;48.614;10.226;2022-09-20T17:30:21;6.50;;;2.33;;
23800;SDS011;12081;48.614;10.226;2022-09-20T17:33:05;4.03;;;2.80;;
23800;SDS011;12081;48.614;10.226;2022-09-20T17:35:50;5.80;;;3.20;;
23800;SDS011;12081;48.614;10.226;2022-09-20T17:38:34;8.33;;;2.37;;
23800;SDS011;12081;48.614;10.226;2022-09-20T17:41:19;3.57;;;1.83;;
23800;SDS011;12081;48.614;10.226;2022-09-20T17:44:04;4.03;;;1.60;;
23800;SDS011;12081;48.614;10.226;2022-09-20T17:46:52;8.93;;;2.20;;
23800;SDS011;12081;48.614;10.226;2022-09-20T17:49:36;7.03;;;2.27;;
23800;SDS011;12081;48.614;10.226;2022-09-20T17:52:21;6.47;;;2.10;;
23800;SDS011;12081;48.614;10.226;2022-09-20T17:55:05;6.80;;;1.90;;
23800;SDS011;12081;48.614;10.226;2022-09-20T17:57:51;4.37;;;2.10;;
23800;SDS011;12081;48.614;10.226;2022-09-20T18:00:35;5.40;;;2.13;;
23800;SDS011;12081;48.614;10.226;2022-09-20T18:03:21;8.37;;;2.47;;
23800;SDS011;12081;48.614;10.226;2022-09-20T18:06:12;4.13;;;2.17;;
23800;SDS011;12081;48.614;10.226;2022-09-20T18:11:46;4.93;;;2.93;;
23800;SDS011;12081;48.614;10.226;2022-09-20T18:14:31;5.83;;;2.50;;
23800;SDS011;12081;48.614;10.226;2022-09-20T18:17:15;5.80;;;2.73;;
23800;SDS011;12081;48.614;10.226;2022-09-20T18:19:59;5.60;;;2.93;;
23800;SDS011;12081;48.614;10.226;2022-09-20T18:22:47;6.67;;;2.50;;
23800;SDS011;12081;48.614;10.226;2022-09-20T18:25:33;3.43;;;1.50;;
23800;SDS011;12081;48.614;10.226;2022-09-20T18:28:37;2.37;;;1.37;;
23800;SDS011;12081;48.614;10.226;2022-09-20T18:31:25;4.53;;;1.93;;
23800;SDS011;12081;48.614;10.226;2022-09-20T18:34:19;3.40;;;1.57;;
23800;SDS011;12081;48.614;10.226;2022-09-20T18:37:03;5.37;;;1.80;;
23800;SDS011;12081;48.614;10.226;2022-09-20T18:39:49;4.80;;;2.23;;
23800;SDS011;12081;48.614;10.226;2022-09-20T18:42:33;5.00;;;2.00;;
23800;SDS011;12081;48.614;10.226;2022-09-20T18:45:17;9.23;;;2.97;;
23800;SDS011;12081;48.614;10.226;2022-09-20T18:48:10;4.70;;;2.60;;
23800;SDS011;12081;48.614;10.226;2022-09-20T18:50:55;5.37;;;4.07;;
23800;SDS011;12081;48.614;10.226;2022-09-20T18:53:44;6.77;;;5.00;;
23800;SDS011;12081;48.614;10.226;2022-09-20T18:56:32;6.83;;;4.50;;
23800;SDS011;12081;48.614;10.226;2022-09-20T18:59:21;5.03;;;3.60;;
23800;SDS011;12081;48.614;10.226;2022-09-20T19:02:23;5.67;;;3.60;;
23800;SDS011;12081;48.614;10.226;2022-09-20T19:08:39;10.93;;;6.90;;
23800;SDS011;12081;48.614;10.226;2022-09-20T19:11:42;8.33;;;4.40;;
23800;SDS011;12081;48.614;10.226;2022-09-20T19:14:40;6.73;;;3.60;;
23800;SDS011;12081;48.614;10.226;2022-09-20T19:26:54;9.27;;;4.50;;
23800;SDS011;12081;48.614;10.226;2022-09-20T19:29:38;7.50;;;4.20;;
23800;SDS011;12081;48.614;10.226;2022-09-20T19:32:23;8.83;;;3.70;;
23800;SDS011;12081;48.614;10.226;2022-09-20T19:35:13;6.77;;;3.20;;
23800;SDS011;12081;48.614;10.226;2022-09-20T19:38:10;3.47;;;2.40;;
23800;SDS011;12081;48.614;10.226;2022-09-20T19:41:03;4.67;;;2.20;;
23800;SDS011;12081;48.614;10.226;2022-09-20T19:50:11;9.17;;;3.57;;
23800;SDS011;12081;48.614;10.226;2022-09-20T19:53:00;7.57;;;3.53;;
23800;SDS011;12081;48.614;10.226;2022-09-20T19:55:47;5.83;;;2.90;;
23800;SDS011;12081;48.614;10.226;2022-09-20T19:58:35;6.53;;;2.40;;
23800;SDS011;12081;48.614;10.226;2022-09-20T20:01:23;6.73;;;2.87;;
23800;SDS011;12081;48.614;10.226;2022-09-20T20:04:08;4.60;;;2.77;;
23800;SDS011;12081;48.614;10.226;2022-09-20T20:06:56;3.97;;;2.50;;
23800;SDS011;12081;48.614;10.226;2022-09-20T20:09:57;3.80;;;2.10;;
23800;SDS011;12081;48.614;10.226;2022-09-20T20:13:08;5.03;;;3.67;;
23800;SDS011;12081;48.614;10.226;2022-09-20T20:16:17;27.23;;;11.30;;
23800;SDS011;12081;48.614;10.226;2022-09-20T20:19:08;17.57;;;7.80;;
23800;SDS011;12081;48.614;10.226;2022-09-20T20:25:59;4.07;;;2.30;;
23800;SDS011;12081;48.614;10.226;2022-09-20T20:28:34;5.20;;;2.10;;
23800;SDS011;12081;48.614;10.226;2022-09-20T20:31:20;3.37;;;1.83;;
23800;SDS011;12081;48.614;10.226;2022-09-20T20:34:05;3.07;;;1.60;;
23800;SDS011;12081;48.614;10.226;2022-09-20T20:36:51;3.93;;;1.90;;
23800;SDS011;12081;48.614;10.226;2022-09-20T20:39:40;2.50;;;1.47;;
23800;SDS011;12081;48.614;10.226;2022-09-20T20:42:24;3.17;;;1.57;;
23800;SDS011;12081;48.614;10.226;2022-09-20T20:45:10;2.50;;;1.40;;
23800;SDS011;12081;48.614;10.226;2022-09-20T20:47:58;4.03;;;1.70;;
23800;SDS011;12081;48.614;10.226;2022-09-20T20:50:42;3.57;;;2.00;;
23800;SDS011;12081;48.614;10.226;2022-09-20T20:53:33;4.43;;;2.23;;
23800;SDS011;12081;48.614;10.226;2022-09-20T20:56:19;5.57;;;2.17;;
23800;SDS011;12081;48.614;10.226;2022-09-20T20:59:08;3.87;;;2.60;;
23800;SDS011;12081;48.614;10.226;2022-09-20T21:01:52;4.63;;;3.00;;
23800;SDS011;12081;48.614;10.226;2022-09-20T21:04:36;5.43;;;2.50;;
23800;SDS011;12081;48.614;10.226;2022-09-20T21:07:22;3.57;;;2.27;;
23800;SDS011;12081;48.614;10.226;2022-09-20T21:10:07;3.90;;;1.87;;
23800;SDS011;12081;48.614;10.226;2022-09-20T21:12:54;2.60;;;1.23;;
23800;SDS011;12081;48.614;10.226;2022-09-20T21:15:39;4.67;;;1.30;;
23800;SDS011;12081;48.614;10.226;2022-09-20T21:18:24;1.77;;;1.13;;
23800;SDS011;12081;48.614;10.226;2022-09-20T21:21:18;2.53;;;1.70;;
23800;SDS011;12081;48.614;10.226;2022-09-20T21:24:06;5.10;;;1.53;;
23800;SDS011;12081;48.614;10.226;2022-09-20T21:26:51;2.90;;;2.10;;
23800;SDS011;12081;48.614;10.226;2022-09-20T21:29:36;2.97;;;1.97;;
23800;SDS011;12081;48.614;10.226;2022-09-20T21:32:20;2.97;;;1.97;;
23800;SDS011;12081;48.614;10.226;2022-09-20T21:35:04;3.97;;;2.20;;
23800;SDS011;12081;48.614;10.226;2022-09-20T21:37:48;2.37;;;2.00;;
23800;SDS011;12081;48.614;10.226;2022-09-20T21:40:32;3.83;;;2.17;;
23800;SDS011;12081;48.614;10.226;2022-09-20T21:43:16;4.80;;;1.87;;
23800;SDS011;12081;48.614;10.226;2022-09-20T21:46:00;2.80;;;2.10;;
23800;SDS011;12081;48.614;10.226;2022-09-20T21:48:46;3.60;;;2.70;;
23800;SDS011;12081;48.614;10.226;2022-09-20T21:51:31;3.07;;;2.17;;
23800;SDS011;12081;48.614;10.226;2022-09-20T21:54:16;3.67;;;2.33;;
23800;SDS011;12081;48.614;10.226;2022-09-20T21:57:00;5.03;;;2.60;;
23800;SDS011;12081;48.614;10.226;2022-09-20T21:59:44;4.07;;;2.40;;
23800;SDS011;12081;48.614;10.226;2022-09-20T22:02:28;5.60;;;2.63;;
23800;SDS011;12081;48.614;10.226;2022-09-20T22:05:12;4.30;;;2.47;;
23800;SDS011;12081;48.614;10.226;2022-09-20T22:07:56;6.93;;;2.30;;
23800;SDS011;12081;48.614;10.226;2022-09-20T22:10:40;3.73;;;1.97;;
23800;SDS011;12081;48.614;10.226;2022-09-20T22:13:24;4.63;;;2.53;;
23800;SDS011;12081;48.614;10.226;2022-09-20T22:16:14;3.57;;;2.17;;
23800;SDS011;12081;48.614;10.226;2022-09-20T22:19:01;3.13;;;2.10;;
23800;SDS011;12081;48.614;10.226;2022-09-20T22:21:46;4.67;;;2.30;;
23800;SDS011;12081;48.614;10.226;2022-09-20T22:24:32;5.00;;;2.53;;
23800;SDS011;12081;48.614;10.226;2022-09-20T22:27:16;3.60;;;2.67;;
23800;SDS011;12081;48.614;10.226;2022-09-20T22:30:00;4.40;;;2.70;;
23800;SDS011;12081;48.614;10.226;2022-09-20T22:32:44;5.20;;;2.77;;
23800;SDS011;12081;48.614;10.226;2022-09-20T22:35:29;6.50;;;2.63;;
23800;SDS011;12081;48.614;10.226;2022-09-20T22:38:13;5.47;;;3.20;;
23800;SDS011;12081;48.614;10.226;2022-09-20T22:40:57;7.50;;;3.60;;
23800;SDS011;12081;48.614;10.226;2022-09-20T22:43:42;3.83;;;3.10;;
23800;SDS011;12081;48.614;10.226;2022-09-20T22:46:27;5.87;;;3.30;;
23800;SDS011;12081;48.614;10.226;2022-09-20T22:49:12;5.93;;;3.27;;
23800;SDS011;12081;48.614;10.226;2022-09-20T22:51:56;5.23;;;3.57;;
23800;SDS011;12081;48.614;10.226;2022-09-20T22:54:40;7.23;;;3.37;;
23800;SDS011;12081;48.614;10.226;2022-09-20T22:57:29;7.20;;;3.40;;
23800;SDS011;12081;48.614;10.226;2022-09-20T23:00:13;5.63;;;3.10;;
23800;SDS011;12081;48.614;10.226;2022-09-20T23:02:57;5.47;;;3.30;;
23800;SDS011;12081;48.614;10.226;2022-09-20T23:05:42;3.80;;;3.40;;
23800;SDS011;12081;48.614;10.226;2022-09-20T23:08:29;7.00;;;3.33;;
23800;SDS011;12081;48.614;10.226;2022-09-20T23:11:14;5.17;;;3.50;;
23800;SDS011;12081;48.614;10.226;2022-09-20T23:14:00;6.47;;;3.30;;
23800;SDS011;12081;48.614;10.226;2022-09-20T23:16:49;7.00;;;3.43;;
23800;SDS011;12081;48.614;10.226;2022-09-20T23:19:33;6.33;;;3.10;;
23800;SDS011;12081;48.614;10.226;2022-09-20T23:22:17;7.33;;;3.73;;
23800;SDS011;12081;48.614;10.226;2022-09-20T23:25:01;5.77;;;3.27;;
23800;SDS011;12081;48.614;10.226;2022-09-20T23:27:46;7.57;;;3.20;;
23800;SDS011;12081;48.614;10.226;2022-09-20T23:30:30;5.67;;;2.93;;
23800;SDS011;12081;48.614;10.226;2022-09-20T23:33:14;6.90;;;3.17;;
23800;SDS011;12081;48.614;10.226;2022-09-20T23:35:58;6.33;;;4.27;;
23800;SDS011;12081;48.614;10.226;2022-09-20T23:38:42;8.43;;;3.80;;
23800;SDS011;12081;48.614;10.226;2022-09-20T23:41:27;5.17;;;4.37;;
23800;SDS011;12081;48.614;10.226;2022-09-20T23:44:11;7.23;;;4.27;;
23800;SDS011;12081;48.614;10.226;2022-09-20T23:46:55;7.17;;;4.30;;
23800;SDS011;12081;48.614;10.226;2022-09-20T23:49:40;6.27;;;4.40;;
23800;SDS011;12081;48.614;10.226;2022-09-20T23:52:24;6.40;;;3.97;;